createdAt,value
2022-09-28T00:00:40.378Z,7.49
2022-09-28T00:03:08.589Z,7.43
2022-09-28T00:05:35.900Z,7.45
2022-09-28T00:08:04.576Z,7.33
2022-09-28T00:10:31.797Z,7.39
2022-09-28T00:12:59.446Z,7.35
2022-09-28T00:15:26.776Z,7.38
2022-09-28T00:17:53.980Z,7.37
2022-09-28T00:20:21.322Z,7.38
2022-09-28T00:22:48.582Z,7.41
2022-09-28T00:25:17.422Z,7.32
2022-09-28T00:27:49.917Z,7.30
2022-09-28T00:30:17.509Z,7.26
2022-09-28T00:32:44.748Z,7.19
2022-09-28T00:35:12.315Z,7.25
2022-09-28T00:37:39.610Z,7.26
2022-09-28T00:40:07.685Z,7.32
2022-09-28T00:42:36.425Z,7.24
2022-09-28T00:45:04.483Z,7.24
2022-09-28T00:47:43.080Z,7.26
2022-09-28T00:50:17.728Z,7.32
2022-09-28T00:52:49.561Z,7.30
2022-09-28T00:55:20.956Z,7.39
2022-09-28T00:57:54.815Z,7.42
2022-09-28T01:00:22.442Z,7.46
2022-09-28T01:02:49.927Z,7.51
2022-09-28T01:05:18.292Z,7.61
2022-09-28T01:07:47.240Z,7.66
2022-09-28T01:10:15.163Z,7.68
2022-09-28T01:12:42.599Z,7.67
2022-09-28T01:15:11.725Z,7.69
2022-09-28T01:17:53.285Z,7.68
2022-09-28T01:20:34.828Z,7.69
2022-09-28T01:23:44.909Z,7.69
2022-09-28T01:26:45.505Z,7.71
2022-09-28T01:29:20.186Z,7.69
2022-09-28T01:31:52.869Z,7.71
2022-09-28T01:34:26.817Z,7.72
2022-09-28T01:36:56.097Z,7.72
2022-09-28T01:39:29.456Z,7.69
2022-09-28T01:42:02.989Z,7.67
2022-09-28T01:44:35.812Z,7.70
2022-09-28T01:47:04.294Z,7.75
2022-09-28T01:49:35.792Z,7.80
2022-09-28T01:52:10.683Z,7.84
2022-09-28T01:54:43.272Z,7.93
2022-09-28T01:57:16.940Z,8.03
2022-09-28T01:59:53.780Z,8.00
2022-09-28T02:02:26.585Z,8.03
2022-09-28T02:04:57.656Z,8.06
2022-09-28T02:07:30.122Z,8.03
2022-09-28T02:10:02.957Z,8.05
2022-09-28T02:12:38.424Z,8.06
2022-09-28T02:15:12.670Z,8.09
2022-09-28T02:17:40.465Z,8.11
2022-09-28T02:20:08.625Z,8.12
2022-09-28T02:22:41.357Z,8.06
2022-09-28T02:25:11.280Z,8.10
2022-09-28T02:27:43.142Z,8.13
2022-09-28T02:30:12.316Z,8.10
2022-09-28T02:32:42.968Z,8.12
2022-09-28T02:35:13.331Z,8.13
2022-09-28T02:37:40.870Z,8.13
2022-09-28T02:40:15.740Z,8.16
2022-09-28T02:42:56.491Z,8.18
2022-09-28T02:45:37.838Z,8.14
2022-09-28T02:48:19.142Z,8.15
2022-09-28T02:51:05.600Z,8.15
2022-09-28T02:54:03.450Z,8.15
2022-09-28T02:56:46.173Z,8.23
2022-09-28T02:59:28.411Z,8.23
2022-09-28T03:02:03.078Z,8.22
2022-09-28T03:04:38.782Z,8.24
2022-09-28T03:07:18.595Z,8.20
2022-09-28T03:09:54.309Z,8.25
2022-09-28T03:12:24.696Z,8.26
2022-09-28T03:15:06.382Z,8.29
2022-09-28T03:17:35.170Z,8.33
2022-09-28T03:20:02.847Z,8.35
2022-09-28T03:22:30.244Z,8.23
2022-09-28T03:24:57.578Z,8.29
2022-09-28T03:27:24.846Z,8.31
2022-09-28T03:29:52.108Z,8.25
2022-09-28T03:32:19.616Z,8.27
2022-09-28T03:34:48.537Z,8.31
2022-09-28T03:37:15.895Z,8.26
2022-09-28T03:39:43.231Z,8.26
2022-09-28T03:42:10.663Z,8.31
2022-09-28T03:44:42.017Z,8.31
2022-09-28T03:47:09.478Z,8.44
2022-09-28T03:49:37.300Z,8.47
2022-09-28T03:52:06.072Z,8.35
2022-09-28T03:54:33.365Z,8.37
2022-09-28T03:57:00.810Z,8.33
2022-09-28T03:59:28.283Z,8.32
2022-09-28T04:01:55.712Z,8.24
2022-09-28T04:04:23.353Z,8.26
2022-09-28T04:06:50.627Z,8.35
2022-09-28T04:09:20.444Z,8.27
2022-09-28T04:12:02.954Z,8.34
2022-09-28T04:14:31.633Z,8.26
2022-09-28T04:16:58.889Z,8.22
2022-09-28T04:19:28.307Z,8.15
2022-09-28T04:22:08.078Z,8.19
2022-09-28T04:24:36.965Z,8.11
2022-09-28T04:27:04.356Z,8.11
2022-09-28T04:29:31.590Z,8.11
2022-09-28T04:32:00.715Z,8.07
2022-09-28T04:34:40.670Z,8.02
2022-09-28T04:37:10.695Z,7.94
2022-09-28T04:39:45.100Z,7.92
2022-09-28T04:42:16.718Z,7.92
2022-09-28T04:44:44.044Z,7.85
2022-09-28T04:47:12.319Z,7.83
2022-09-28T04:49:59.345Z,7.82
2022-09-28T04:52:31.775Z,7.74
2022-09-28T04:55:00.591Z,7.69
2022-09-28T04:57:27.904Z,7.70
2022-09-28T04:59:55.440Z,7.67
2022-09-28T05:02:22.735Z,7.62
2022-09-28T05:05:08.944Z,7.63
2022-09-28T05:07:57.827Z,7.67
2022-09-28T05:10:26.929Z,7.65
2022-09-28T05:12:54.275Z,7.67
2022-09-28T05:15:21.674Z,7.67
2022-09-28T05:17:49.426Z,7.72
2022-09-28T05:20:21.605Z,7.72
2022-09-28T05:22:49.032Z,7.68
2022-09-28T05:25:17.593Z,7.68
2022-09-28T05:28:08.958Z,7.70
2022-09-28T05:31:03.862Z,7.74
2022-09-28T05:33:51.010Z,7.79
2022-09-28T05:36:18.318Z,7.80
2022-09-28T05:38:45.574Z,7.79
2022-09-28T05:41:12.880Z,7.75
2022-09-28T05:43:41.508Z,7.83
2022-09-28T05:46:08.786Z,7.82
2022-09-28T05:48:38.921Z,7.72
2022-09-28T05:51:06.365Z,7.79
2022-09-28T05:53:33.606Z,7.80
2022-09-28T05:56:01.511Z,7.80
2022-09-28T05:58:31.631Z,7.90
2022-09-28T06:01:01.301Z,7.97
2022-09-28T06:03:30.265Z,7.87
2022-09-28T06:06:00.347Z,7.97
2022-09-28T06:08:27.763Z,8.02
2022-09-28T06:11:03.285Z,8.01
2022-09-28T06:13:30.557Z,7.97
2022-09-28T06:15:57.717Z,7.91
2022-09-28T06:18:27.928Z,7.92
2022-09-28T06:21:19.725Z,7.93
2022-09-28T06:23:49.386Z,7.91
2022-09-28T06:26:18.366Z,7.84
2022-09-28T06:28:46.250Z,7.85
2022-09-28T06:31:13.842Z,7.83
2022-09-28T06:33:48.195Z,7.96
2022-09-28T06:36:15.916Z,7.94
2022-09-28T06:38:43.894Z,7.94
2022-09-28T06:41:11.927Z,7.97
2022-09-28T06:43:40.999Z,8.00
2022-09-28T06:46:26.808Z,8.08
2022-09-28T06:48:55.462Z,8.10
2022-09-28T06:51:48.623Z,8.18
2022-09-28T06:54:21.108Z,8.17
2022-09-28T06:57:00.685Z,8.23
2022-09-28T06:59:29.352Z,8.32
2022-09-28T07:01:58.389Z,8.33
2022-09-28T07:04:45.380Z,8.31
2022-09-28T07:07:33.038Z,8.44
2022-09-28T07:10:12.342Z,8.42
2022-09-28T07:12:46.465Z,8.38
2022-09-28T07:15:43.219Z,8.39
2022-09-28T07:18:13.532Z,8.42
2022-09-28T07:20:52.763Z,8.48
2022-09-28T07:23:21.364Z,8.51
2022-09-28T07:26:21.727Z,8.46
2022-09-28T07:28:59.426Z,8.76
2022-09-28T07:31:58.986Z,8.79
2022-09-28T07:34:44.715Z,8.81
2022-09-28T07:37:48.652Z,8.81
2022-09-28T07:40:16.232Z,8.76
2022-09-28T07:42:43.446Z,8.95
2022-09-28T07:45:12.020Z,8.78
2022-09-28T07:47:39.275Z,8.99
2022-09-28T07:50:13.490Z,9.17
2022-09-28T07:52:57.932Z,9.38
2022-09-28T07:55:50.820Z,9.33
2022-09-28T07:58:35.001Z,9.54
2022-09-28T08:01:20.855Z,9.69
2022-09-28T08:03:49.060Z,9.46
2022-09-28T08:06:17.072Z,9.50
2022-09-28T08:08:45.779Z,10.02
2022-09-28T08:11:17.379Z,9.92
2022-09-28T08:14:16.811Z,10.03
2022-09-28T08:17:09.754Z,10.28
2022-09-28T08:19:46.172Z,10.35
2022-09-28T08:22:14.507Z,10.25
2022-09-28T08:24:43.190Z,10.20
2022-09-28T08:27:10.882Z,10.02
2022-09-28T08:29:40.007Z,10.25
2022-09-28T08:32:30.389Z,10.17
2022-09-28T08:35:16.081Z,9.96
2022-09-28T08:38:18.825Z,10.01
2022-09-28T08:41:17.249Z,10.02
2022-09-28T08:44:13.955Z,9.66
2022-09-28T08:47:19.565Z,9.82
2022-09-28T08:50:05.200Z,9.72
2022-09-28T08:52:47.946Z,9.70
2022-09-28T08:55:39.565Z,9.95
2022-09-28T08:58:13.889Z,10.06
2022-09-28T09:00:46.564Z,10.12
2022-09-28T09:03:17.477Z,9.97
2022-09-28T09:06:01.171Z,9.91
2022-09-28T09:09:09.863Z,10.31
2022-09-28T09:11:52.243Z,10.01
2022-09-28T09:14:59.368Z,9.76
2022-09-28T09:17:40.031Z,9.99
2022-09-28T09:20:37.594Z,10.38
2022-09-28T09:23:25.524Z,10.43
2022-09-28T09:25:57.504Z,10.16
2022-09-28T09:29:00.004Z,10.16
2022-09-28T09:31:50.652Z,10.57
2022-09-28T09:34:42.808Z,10.47
2022-09-28T09:37:58.747Z,10.63
2022-09-28T09:41:16.704Z,11.00
2022-09-28T09:44:27.401Z,11.00
2022-09-28T09:47:07.417Z,11.48
2022-09-28T09:49:46.445Z,11.73
2022-09-28T09:52:21.797Z,12.13
2022-09-28T09:54:54.668Z,12.22
2022-09-28T09:57:44.192Z,12.64
2022-09-28T10:00:40.743Z,12.87
2022-09-28T10:03:24.235Z,13.34
2022-09-28T10:05:58.904Z,13.43
2022-09-28T10:08:28.237Z,13.13
2022-09-28T10:11:05.892Z,13.36
2022-09-28T10:13:34.073Z,12.40
2022-09-28T10:16:05.807Z,13.04
2022-09-28T10:18:38.615Z,13.86
2022-09-28T10:21:24.593Z,14.79
2022-09-28T10:24:00.844Z,14.18
2022-09-28T10:26:34.302Z,13.96
2022-09-28T10:29:05.213Z,13.79
2022-09-28T10:31:41.645Z,14.12
2022-09-28T10:34:18.076Z,13.75
2022-09-28T10:36:52.417Z,13.62
2022-09-28T10:39:27.263Z,13.30
2022-09-28T10:41:54.873Z,13.68
2022-09-28T10:44:27.241Z,13.75
2022-09-28T10:47:05.292Z,14.22
2022-09-28T10:49:46.786Z,13.94
2022-09-28T10:52:34.235Z,15.28
2022-09-28T10:55:02.388Z,15.46
2022-09-28T10:57:33.736Z,15.19
2022-09-28T11:00:06.578Z,15.25
2022-09-28T11:02:41.210Z,15.48
2022-09-28T11:05:26.370Z,15.71
2022-09-28T11:07:57.673Z,16.78
2022-09-28T11:10:32.705Z,17.57
2022-09-28T11:13:09.910Z,17.05
2022-09-28T11:15:43.252Z,18.06
2022-09-28T11:18:26.877Z,18.35
2022-09-28T11:21:10.986Z,17.73
2022-09-28T11:23:39.646Z,17.58
2022-09-28T11:26:18.917Z,17.87
2022-09-28T11:28:51.164Z,17.44
2022-09-28T11:31:27.209Z,18.35
2022-09-28T11:34:06.444Z,17.94
2022-09-28T11:37:01.546Z,17.66
2022-09-28T11:39:40.782Z,18.92
2022-09-28T11:42:23.831Z,19.01
2022-09-28T11:44:58.860Z,20.18
2022-09-28T11:47:45.329Z,19.18
2022-09-28T11:50:24.129Z,19.96
2022-09-28T11:53:01.785Z,21.00
2022-09-28T11:55:35.803Z,20.03
2022-09-28T11:58:10.005Z,18.03
2022-09-28T12:00:44.657Z,19.09
2022-09-28T12:03:18.161Z,18.52
2022-09-28T12:05:51.632Z,19.15
2022-09-28T12:08:24.359Z,18.25
2022-09-28T12:11:18.267Z,17.43
2022-09-28T12:14:11.438Z,16.67
2022-09-28T12:17:04.875Z,15.42
2022-09-28T12:19:36.479Z,15.23
2022-09-28T12:22:10.151Z,14.93
2022-09-28T12:24:42.309Z,13.89
2022-09-28T12:27:16.192Z,14.12
2022-09-28T12:29:49.289Z,13.92
2022-09-28T12:32:28.411Z,13.35
2022-09-28T12:34:56.368Z,13.15
2022-09-28T12:37:36.233Z,13.29
2022-09-28T12:40:30.216Z,12.87
2022-09-28T12:43:09.248Z,12.68
2022-09-28T12:46:10.912Z,12.80
2022-09-28T12:49:56.362Z,13.00
2022-09-28T12:51:51.300Z,12.99
2022-09-28T12:54:41.278Z,12.79
2022-09-28T12:57:29.930Z,12.85
2022-09-28T13:00:04.283Z,13.00
2022-09-28T13:03:01.300Z,12.99
2022-09-28T13:05:53.813Z,13.41
2022-09-28T13:08:31.394Z,13.35
2022-09-28T13:11:08.426Z,13.80
2022-09-28T13:13:48.606Z,13.82
2022-09-28T13:16:24.631Z,14.13
2022-09-28T13:19:02.583Z,14.42
2022-09-28T13:21:37.942Z,14.86
2022-09-28T13:24:31.200Z,15.44
2022-09-28T13:27:02.393Z,15.56
2022-09-28T13:29:32.344Z,16.56
2022-09-28T13:32:00.827Z,15.95
2022-09-28T13:34:30.833Z,15.20
2022-09-28T13:37:23.704Z,15.79
2022-09-28T13:39:52.782Z,15.43
2022-09-28T13:42:52.356Z,14.93
2022-09-28T13:45:53.813Z,14.53
2022-09-28T13:48:28.294Z,14.80
2022-09-28T13:51:12.283Z,16.85
2022-09-28T13:53:55.753Z,17.04
2022-09-28T13:56:32.666Z,17.62
2022-09-28T13:59:03.959Z,17.77
2022-09-28T14:01:37.510Z,18.51
2022-09-28T14:04:16.119Z,16.04
2022-09-28T14:06:49.519Z,15.68
2022-09-28T14:09:40.051Z,15.35
2022-09-28T14:12:30.351Z,16.34
2022-09-28T14:14:57.659Z,15.97
2022-09-28T14:17:54.569Z,16.37
2022-09-28T14:20:24.962Z,15.70
2022-09-28T14:23:18.691Z,16.08
2022-09-28T14:26:02.589Z,15.23
2022-09-28T14:28:42.131Z,14.53
2022-09-28T14:31:17.140Z,14.16
2022-09-28T14:33:54.766Z,14.97
2022-09-28T14:36:25.361Z,16.01
2022-09-28T14:38:52.711Z,17.59
2022-09-28T14:41:31.704Z,20.40
2022-09-28T14:44:05.756Z,21.82
2022-09-28T14:46:40.571Z,20.44
2022-09-28T14:49:46.904Z,17.92
2022-09-28T14:52:19.131Z,19.20
2022-09-28T14:54:53.105Z,17.27
2022-09-28T14:57:25.025Z,15.80
2022-09-28T14:59:52.362Z,15.54
2022-09-28T15:02:24.895Z,14.77
2022-09-28T15:04:56.739Z,14.52
2022-09-28T15:07:26.372Z,14.32
2022-09-28T15:09:54.671Z,14.73
2022-09-28T15:12:25.601Z,14.31
2022-09-28T15:14:56.210Z,14.49
2022-09-28T15:17:27.283Z,14.40
2022-09-28T15:20:16.900Z,14.62
2022-09-28T15:22:46.478Z,14.85
2022-09-28T15:25:15.355Z,14.40
2022-09-28T15:27:42.619Z,14.63
2022-09-28T15:30:21.387Z,14.97
2022-09-28T15:32:48.784Z,15.43
2022-09-28T15:35:21.867Z,16.05
2022-09-28T15:37:50.060Z,15.72
2022-09-28T15:40:19.266Z,14.91
2022-09-28T15:42:47.012Z,14.41
2022-09-28T15:45:23.092Z,14.39
2022-09-28T15:47:51.401Z,14.18
2022-09-28T15:50:23.407Z,14.03
2022-09-28T15:52:54.637Z,13.99
2022-09-28T15:55:25.303Z,13.84
2022-09-28T15:58:06.119Z,13.73
2022-09-28T16:00:33.837Z,13.87
2022-09-28T16:03:17.709Z,14.12
2022-09-28T16:05:50.031Z,15.15
2022-09-28T16:08:19.000Z,15.57
2022-09-28T16:10:55.393Z,16.13
2022-09-28T16:13:22.778Z,16.50
2022-09-28T16:15:56.377Z,16.83
2022-09-28T16:18:25.328Z,16.23
2022-09-28T16:20:55.175Z,16.77
2022-09-28T16:23:25.900Z,16.93
2022-09-28T16:25:56.593Z,17.41
2022-09-28T16:28:43.833Z,16.73
2022-09-28T16:31:25.375Z,15.85
2022-09-28T16:33:54.075Z,15.29
2022-09-28T16:36:25.236Z,15.20
2022-09-28T16:38:52.675Z,14.35
2022-09-28T16:41:23.027Z,13.59
2022-09-28T16:43:55.481Z,13.23
2022-09-28T16:46:29.935Z,13.16
2022-09-28T16:48:57.211Z,13.00
2022-09-28T16:51:25.764Z,12.71
2022-09-28T16:53:53.275Z,12.55
2022-09-28T16:56:21.048Z,12.54
2022-09-28T16:58:48.444Z,12.39
2022-09-28T17:01:15.771Z,12.16
2022-09-28T17:03:43.393Z,12.13
2022-09-28T17:06:12.532Z,12.01
2022-09-28T17:08:41.161Z,11.95
2022-09-28T17:11:17.017Z,11.83
2022-09-28T17:13:47.199Z,11.83
2022-09-28T17:16:17.425Z,11.78
2022-09-28T17:18:45.523Z,11.63
2022-09-28T17:21:14.927Z,11.50
2022-09-28T17:23:43.743Z,11.47
2022-09-28T17:26:19.337Z,11.37
2022-09-28T17:28:46.740Z,11.24
2022-09-28T17:31:15.510Z,11.34
2022-09-28T17:33:43.081Z,11.35
2022-09-28T17:36:14.863Z,11.26
2022-09-28T17:38:45.063Z,11.30
2022-09-28T17:41:18.091Z,11.29
2022-09-28T17:43:47.684Z,11.13
2022-09-28T17:46:27.154Z,10.92
2022-09-28T17:48:55.693Z,11.08
2022-09-28T17:51:22.952Z,11.16
2022-09-28T17:53:51.682Z,10.90
2022-09-28T17:56:18.997Z,10.84
2022-09-28T17:58:46.270Z,10.83
2022-09-28T18:01:14.057Z,10.86
2022-09-28T18:03:41.443Z,10.70
2022-09-28T18:06:13.513Z,10.71
2022-09-28T18:08:41.251Z,10.59
2022-09-28T18:11:09.912Z,10.64
2022-09-28T18:13:37.382Z,10.50
2022-09-28T18:16:05.615Z,10.55
2022-09-28T18:18:33.231Z,10.55
2022-09-28T18:21:00.565Z,10.48
2022-09-28T18:23:27.858Z,10.59
2022-09-28T18:25:55.049Z,10.62
2022-09-28T18:28:23.944Z,10.54
2022-09-28T18:30:51.211Z,10.59
2022-09-28T18:33:18.567Z,10.46
2022-09-28T18:35:53.469Z,10.53
2022-09-28T18:38:21.155Z,10.40
2022-09-28T18:40:48.551Z,10.46
2022-09-28T18:43:16.019Z,10.46
2022-09-28T18:45:44.699Z,10.41
2022-09-28T18:48:11.955Z,10.29
2022-09-28T18:50:41.442Z,10.29
2022-09-28T18:53:08.749Z,10.38
2022-09-28T18:55:36.082Z,10.25
2022-09-28T18:58:03.455Z,10.22
2022-09-28T19:00:30.817Z,10.29
2022-09-28T19:03:00.107Z,10.19
2022-09-28T19:05:27.851Z,10.22
2022-09-28T19:07:55.089Z,10.19
2022-09-28T19:10:22.449Z,10.14
2022-09-28T19:12:49.752Z,10.09
2022-09-28T19:15:16.963Z,10.04
2022-09-28T19:17:44.223Z,10.05
2022-09-28T19:20:12.872Z,10.09
2022-09-28T19:22:40.105Z,10.02
2022-09-28T19:25:07.776Z,9.91
2022-09-28T19:27:35.303Z,10.01
2022-09-28T19:30:03.480Z,10.00
2022-09-28T19:32:30.773Z,10.01
2022-09-28T19:34:58.038Z,10.02
2022-09-28T19:37:26.705Z,9.92
2022-09-28T19:39:53.984Z,9.98
2022-09-28T19:42:21.280Z,9.98
2022-09-28T19:44:48.500Z,10.02
2022-09-28T19:47:15.813Z,9.95
2022-09-28T19:49:42.988Z,9.90
2022-09-28T19:52:14.705Z,9.88
2022-09-28T19:54:45.026Z,9.90
2022-09-28T19:57:13.112Z,9.82
2022-09-28T19:59:40.439Z,9.80
2022-09-28T20:02:10.435Z,9.82
2022-09-28T20:04:37.848Z,9.78
2022-09-28T20:07:05.099Z,9.75
2022-09-28T20:09:32.745Z,9.70
2022-09-28T20:12:01.676Z,9.75
2022-09-28T20:14:33.046Z,9.68
2022-09-28T20:17:03.713Z,9.66
2022-09-28T20:19:31.116Z,9.64
2022-09-28T20:21:58.400Z,9.59
2022-09-28T20:24:25.799Z,9.65
2022-09-28T20:26:53.050Z,9.52
2022-09-28T20:29:21.621Z,9.47
2022-09-28T20:31:48.962Z,9.47
2022-09-28T20:34:16.294Z,9.43
2022-09-28T20:36:43.621Z,9.47
2022-09-28T20:39:11.758Z,9.40
2022-09-28T20:41:39.131Z,9.42
2022-09-28T20:44:06.794Z,9.40
2022-09-28T20:46:36.332Z,9.40
2022-09-28T20:49:04.117Z,9.37
2022-09-28T20:51:31.920Z,9.30
2022-09-28T20:53:59.426Z,9.30
2022-09-28T20:56:27.957Z,9.25
2022-09-28T20:58:55.786Z,9.28
2022-09-28T21:01:24.546Z,9.19
2022-09-28T21:03:54.786Z,9.19
2022-09-28T21:06:23.943Z,9.14
2022-09-28T21:08:51.706Z,9.13
2022-09-28T21:11:20.353Z,9.10
2022-09-28T21:13:48.532Z,9.10
2022-09-28T21:16:16.403Z,9.06
2022-09-28T21:18:44.472Z,9.01
2022-09-28T21:21:15.431Z,9.06
2022-09-28T21:23:42.934Z,8.98
2022-09-28T21:26:12.433Z,8.95
2022-09-28T21:28:39.822Z,8.92
2022-09-28T21:31:09.413Z,8.89
2022-09-28T21:33:37.072Z,8.92
2022-09-28T21:36:05.950Z,8.82
2022-09-28T21:38:34.979Z,8.70
2022-09-28T21:41:02.557Z,8.82
2022-09-28T21:43:30.772Z,8.67
2022-09-28T21:45:58.712Z,8.71
2022-09-28T21:48:27.380Z,8.72
2022-09-28T21:50:55.928Z,8.75
2022-09-28T21:53:24.034Z,8.69
2022-09-28T21:55:53.437Z,8.68
2022-09-28T21:58:21.291Z,8.69
2022-09-28T22:00:48.865Z,8.77
2022-09-28T22:03:16.102Z,8.72
2022-09-28T22:05:43.397Z,8.76
2022-09-28T22:08:10.713Z,8.71
2022-09-28T22:10:38.004Z,8.72
2022-09-28T22:13:06.602Z,8.68
2022-09-28T22:15:33.908Z,8.72
2022-09-28T22:18:01.169Z,8.71
2022-09-28T22:20:28.520Z,8.70
2022-09-28T22:22:55.847Z,8.72
2022-09-28T22:25:23.100Z,8.75
2022-09-28T22:27:50.550Z,8.74
2022-09-28T22:30:19.143Z,8.82
2022-09-28T22:32:46.497Z,8.83
2022-09-28T22:35:14.006Z,8.89
2022-09-28T22:37:41.246Z,8.86
2022-09-28T22:40:09.836Z,8.90
2022-09-28T22:42:37.089Z,8.87
2022-09-28T22:45:05.582Z,8.88
2022-09-28T22:47:34.192Z,8.88
2022-09-28T22:50:01.419Z,8.84
2022-09-28T22:52:28.744Z,8.81
2022-09-28T22:54:55.930Z,8.89
2022-09-28T22:57:23.153Z,8.84
2022-09-28T22:59:50.508Z,8.88
2022-09-28T23:02:17.812Z,8.90
2022-09-28T23:04:46.438Z,8.88
2022-09-28T23:07:13.654Z,8.96
2022-09-28T23:09:40.949Z,8.98
2022-09-28T23:12:08.194Z,8.96
2022-09-28T23:14:35.435Z,8.93
2022-09-28T23:17:02.768Z,8.91
2022-09-28T23:19:30.013Z,8.93
2022-09-28T23:21:58.744Z,8.88
2022-09-28T23:24:25.957Z,8.81
2022-09-28T23:26:53.184Z,8.80
2022-09-28T23:29:20.712Z,8.74
2022-09-28T23:31:48.054Z,8.66
2022-09-28T23:34:15.306Z,8.65
2022-09-28T23:36:42.589Z,8.59
2022-09-28T23:39:11.377Z,8.57
2022-09-28T23:41:38.588Z,8.49
2022-09-28T23:44:05.787Z,8.43
2022-09-28T23:46:33.215Z,8.39
2022-09-28T23:49:00.449Z,8.35
2022-09-28T23:51:27.783Z,8.28
2022-09-28T23:53:55.035Z,8.22
2022-09-28T23:56:23.774Z,8.22
2022-09-28T23:58:51.075Z,8.15
